Time;durP1;ratioP1;P1;durP2;ratioP2;P2;SDS_P1;SDS_P2;PMS_P1;PMS_P2;Temp;Humidity;BMP_temperature;BMP_pressure;BME280_temperature;BME280_humidity;BME280_pressure;Samples;Min_cycle;Max_cycle;Signal;HPM_P1;HPM_P2
2023/05/05 00:01:12;;;;;;;;;;;;;;;21.10;43.59;100401.88;4948695;28;6776;-75
2023/05/05 00:03:37;;;;;;;;;;;;;;;21.08;44.16;100401.00;4981768;28;6771;-75
2023/05/05 00:06:04;;;;;;;;;;;;;;;21.04;44.51;100405.31;4951676;28;6963;-75
2023/05/05 00:08:30;;;;;;;;;;;;;;;21.05;44.43;100414.88;4951562;28;6972;-75
2023/05/05 00:10:56;;;;;;;;;;;;;;;21.08;44.35;100406.22;4983036;28;7405;-75
2023/05/05 00:13:22;;;;;;;;;;;;;;;21.11;44.77;100406.22;4959949;28;6837;-75
2023/05/05 00:15:50;;;;;;;;;;;;;;;21.16;44.81;100407.13;4968254;28;6788;-75
2023/05/05 00:18:17;;;;;;;;;;;;;;;21.19;44.87;100407.13;4983721;28;7074;-75
2023/05/05 00:20:45;;;;;;;;;;;;;;;21.24;44.98;100399.31;4985208;28;6784;-75
2023/05/05 00:23:11;;;;;;;;;;;;;;;21.26;44.93;100400.19;4965271;28;9841;-76
2023/05/05 00:25:37;;;;;;;;;;;;;;;21.27;44.72;100395.88;4948549;28;6848;-75
2023/05/05 00:28:03;;;;;;;;;;;;;;;21.27;44.89;100401.06;4979580;28;6828;-75
2023/05/05 00:30:29;;;;;;;;;;;;;;;21.23;44.94;100395.84;4942257;28;7210;-75
2023/05/05 00:32:55;;;;;;;;;;;;;;;21.20;45.22;100402.78;4958807;28;7567;-75
2023/05/05 00:35:21;;;;;;;;;;;;;;;21.17;45.43;100414.06;4965608;28;7261;-75
2023/05/05 00:37:46;;;;;;;;;;;;;;;21.15;45.33;100405.38;4958752;28;7740;-75
2023/05/05 00:40:12;;;;;;;;;;;;;;;21.12;45.53;100402.75;4968280;28;7875;-75
2023/05/05 00:42:45;;;;;;;;;;;;;;;21.09;45.43;100402.72;4956838;28;6792;-75
2023/05/05 00:45:14;;;;;;;;;;;;;;;21.05;45.49;100401.84;4956209;28;6816;-75
2023/05/05 00:47:52;;;;;;;;;;;;;;;21.03;45.75;100400.97;4966448;28;7365;-75
2023/05/05 00:50:29;;;;;;;;;;;;;;;21.01;45.90;100401.81;4967887;28;6983;-75
2023/05/05 00:53:02;;;;;;;;;;;;;;;21.00;45.87;100397.47;4957246;28;7414;-75
2023/05/05 00:55:33;;;;;;;;;;;;;;;20.99;46.17;100403.56;4959447;28;6890;-74
2023/05/05 00:58:00;;;;;;;;;;;;;;;20.98;46.08;100402.66;4962089;28;7173;-75
2023/05/05 01:00:26;;;;;;;;;;;;;;;20.97;46.01;100406.16;4968750;28;6788;-75
2023/05/05 01:02:52;;;;;;;;;;;;;;;20.95;46.51;100410.47;4950364;28;6907;-75
2023/05/05 01:05:22;;;;;;;;;;;;;;;20.93;46.43;100401.78;4967729;28;6974;-75
2023/05/05 01:08:34;;;;;;;;;;;;;;;20.93;46.47;100410.47;4968726;28;6788;-75
2023/05/05 01:11:29;;;;;;;;;;;;;;;20.88;46.18;100409.59;4956401;28;7814;-75
2023/05/05 01:14:17;;;;;;;;;;;;;;;20.87;46.52;100415.66;4970080;28;6983;-75
2023/05/05 01:17:16;;;;;;;;;;;;;;;20.85;46.53;100419.09;4965358;28;6796;-75
2023/05/05 01:20:17;;;;;;;;;;;;;;;20.82;46.82;100427.78;4950111;28;7243;-75
2023/05/05 01:22:49;;;;;;;;;;;;;;;20.77;46.80;100421.66;4961780;28;7019;-75
2023/05/05 01:25:21;;;;;;;;;;;;;;;20.74;46.73;100422.50;4958997;28;7987;-75
2023/05/05 01:28:08;;;;;;;;;;;;;;;20.71;46.75;100424.19;4955562;28;6784;-75
2023/05/05 01:30:57;;;;;;;;;;;;;;;20.68;47.04;100427.66;4966538;28;6991;-75
2023/05/05 01:33:30;;;;;;;;;;;;;;;20.65;47.18;100425.88;4955370;28;6776;-75
2023/05/05 01:36:09;;;;;;;;;;;;;;;20.66;47.23;100426.78;4979129;28;6943;-75
2023/05/05 01:38:44;;;;;;;;;;;;;;;20.67;47.32;100433.72;4954485;28;6872;-75
2023/05/05 01:41:18;;;;;;;;;;;;;;;20.67;47.56;100436.31;4957014;28;6883;-75
2023/05/05 01:43:49;;;;;;;;;;;;;;;20.68;47.44;100438.06;4966810;28;6967;-75
2023/05/05 01:46:16;;;;;;;;;;;;;;;20.69;47.62;100442.41;4957276;28;7258;-75
2023/05/05 01:48:44;;;;;;;;;;;;;;;20.69;47.87;100439.81;4962579;28;6800;-75
2023/05/05 01:51:12;;;;;;;;;;;;;;;20.67;47.63;100439.81;4966891;28;6986;-75
2023/05/05 01:53:39;;;;;;;;;;;;;;;20.67;47.70;100445.03;4950552;28;7007;-75
2023/05/05 01:56:07;;;;;;;;;;;;;;;20.64;47.76;100444.97;4960190;28;7337;-75
2023/05/05 01:58:34;;;;;;;;;;;;;;;20.62;47.95;100440.66;4972342;28;7187;-75
2023/05/05 02:01:01;;;;;;;;;;;;;;;20.59;47.93;100448.41;4954918;28;7318;-75
2023/05/05 02:03:30;;;;;;;;;;;;;;;20.55;48.12;100447.50;4971732;28;6974;-75
2023/05/05 02:05:59;;;;;;;;;;;;;;;20.51;48.00;100444.00;4954968;28;7060;-75
2023/05/05 02:08:26;;;;;;;;;;;;;;;20.47;48.13;100441.38;4983222;28;6985;-75
2023/05/05 02:10:54;;;;;;;;;;;;;;;20.42;48.14;100440.47;4950036;28;7203;-75
2023/05/05 02:13:24;;;;;;;;;;;;;;;20.35;48.50;100440.41;4958026;28;7000;-75
2023/05/05 02:15:51;;;;;;;;;;;;;;;20.30;48.82;100444.72;4964718;28;6800;-74
2023/05/05 02:18:18;;;;;;;;;;;;;;;20.23;48.87;100454.22;4954854;28;7243;-74
2023/05/05 02:20:46;;;;;;;;;;;;;;;20.18;48.78;100452.41;4972019;28;6948;-75
2023/05/05 02:23:12;;;;;;;;;;;;;;;20.11;49.50;100454.97;4959076;28;7067;-76
2023/05/05 02:25:44;;;;;;;;;;;;;;;20.04;49.01;100455.75;4973324;28;7122;-75
2023/05/05 02:28:38;;;;;;;;;;;;;;;19.97;49.14;100452.22;4959942;28;7178;-75
2023/05/05 02:31:07;;;;;;;;;;;;;;;19.90;49.77;100454.72;4961046;28;6994;-76
2023/05/05 02:33:35;;;;;;;;;;;;;;;19.82;49.71;100460.72;4954194;28;7144;-76
2023/05/05 02:36:24;;;;;;;;;;;;;;;19.71;49.97;100463.19;4943052;28;6844;-74
2023/05/05 02:39:02;;;;;;;;;;;;;;;19.61;49.95;100460.47;4968361;28;6875;-73
2023/05/05 02:41:31;;;;;;;;;;;;;;;19.51;49.72;100470.78;4964434;28;6868;-73
2023/05/05 02:44:01;;;;;;;;;;;;;;;19.40;50.25;100470.63;4950910;28;7158;-72
2023/05/05 02:46:27;;;;;;;;;;;;;;;19.29;50.63;100470.47;4967506;28;6831;-72
2023/05/05 02:48:53;;;;;;;;;;;;;;;19.22;50.88;100473.88;4964555;28;7210;-73
2023/05/05 02:51:19;;;;;;;;;;;;;;;19.17;50.96;100474.63;4966888;28;6776;-71
2023/05/05 02:53:45;;;;;;;;;;;;;;;19.10;51.29;100473.69;4982048;28;6867;-73
2023/05/05 02:56:52;;;;;;;;;;;;;;;19.04;51.42;100474.47;4984919;28;6783;-73
2023/05/05 02:59:55;;;;;;;;;;;;;;;18.99;51.08;100482.16;4974871;28;6824;-72
2023/05/05 03:02:34;;;;;;;;;;;;;;;18.97;51.41;100480.38;4952831;28;6828;-73
2023/05/05 03:05:08;;;;;;;;;;;;;;;18.95;51.85;100479.50;4969765;28;7021;-72
2023/05/05 03:07:46;;;;;;;;;;;;;;;18.91;51.90;100478.56;4971848;28;6967;-72
2023/05/05 03:10:19;;;;;;;;;;;;;;;18.90;51.82;100486.34;4972312;28;6816;-73
2023/05/05 03:12:52;;;;;;;;;;;;;;;18.85;51.72;100484.53;4981112;28;7251;-73
2023/05/05 03:15:23;;;;;;;;;;;;;;;18.83;52.42;100480.16;4963111;28;7130;-74
2023/05/05 03:17:52;;;;;;;;;;;;;;;18.77;52.33;100477.50;4965213;28;6820;-71
2023/05/05 03:20:18;;;;;;;;;;;;;;;18.70;52.28;100490.38;4983174;28;6896;-73
2023/05/05 03:22:44;;;;;;;;;;;;;;;18.65;52.62;100489.44;4964760;28;6792;-73
2023/05/05 03:25:10;;;;;;;;;;;;;;;18.60;52.52;100483.28;4956651;28;7232;-73
2023/05/05 03:27:35;;;;;;;;;;;;;;;18.57;53.02;100496.22;4961440;28;6900;-72
2023/05/05 03:30:01;;;;;;;;;;;;;;;18.55;52.80;100495.34;4982633;28;6831;-72
2023/05/05 03:32:27;;;;;;;;;;;;;;;18.54;53.00;100493.56;4969415;28;7094;-71
2023/05/05 03:34:53;;;;;;;;;;;;;;;18.54;52.96;100491.84;4965030;28;6792;-74
2023/05/05 03:37:18;;;;;;;;;;;;;;;18.55;53.66;100493.59;4957918;28;7136;-73
2023/05/05 03:39:44;;;;;;;;;;;;;;;18.58;53.77;100496.22;4980984;28;6923;-72
2023/05/05 03:42:10;;;;;;;;;;;;;;;18.60;53.56;100498.88;4950085;28;7159;-72
2023/05/05 03:44:35;;;;;;;;;;;;;;;18.61;53.94;100492.81;4982707;28;7392;-71
2023/05/05 03:47:01;;;;;;;;;;;;;;;18.63;53.81;100491.13;4948371;28;6882;-72
2023/05/05 03:49:27;;;;;;;;;;;;;;;18.64;53.34;100490.28;4963768;28;7743;-74
2023/05/05 03:51:53;;;;;;;;;;;;;;;18.62;53.81;100497.16;4968333;28;6780;-73
2023/05/05 03:54:18;;;;;;;;;;;;;;;18.59;53.57;100495.41;4963095;28;7108;-73
2023/05/05 03:56:44;;;;;;;;;;;;;;;18.57;54.03;100496.22;4966833;28;6924;-72
2023/05/05 03:59:10;;;;;;;;;;;;;;;18.54;53.40;100499.63;4961149;28;6808;-71
2023/05/05 04:01:35;;;;;;;;;;;;;;;18.49;53.81;100503.84;4964595;28;6779;-72
2023/05/05 04:04:01;;;;;;;;;;;;;;;18.42;53.91;100512.41;4948616;28;6947;-73
2023/05/05 04:06:27;;;;;;;;;;;;;;;18.36;53.60;100510.59;4984847;28;6966;-73
2023/05/05 04:08:53;;;;;;;;;;;;;;;18.31;53.75;100517.41;4966326;28;7235;-72
2023/05/05 04:11:20;;;;;;;;;;;;;;;18.30;54.05;100513.06;4983595;28;6829;-73
2023/05/05 04:13:47;;;;;;;;;;;;;;;18.30;54.53;100513.06;4967145;28;6844;-74
2023/05/05 04:16:12;;;;;;;;;;;;;;;18.33;54.71;100513.09;4957367;28;6811;-73
2023/05/05 04:18:38;;;;;;;;;;;;;;;18.38;54.75;100523.56;4958330;28;7344;-72
2023/05/05 04:21:04;;;;;;;;;;;;;;;18.42;54.73;100520.19;4987610;28;7247;-73
2023/05/05 04:23:30;;;;;;;;;;;;;;;18.45;55.35;100507.25;4955237;28;6772;-74
2023/05/05 04:25:56;;;;;;;;;;;;;;;18.51;55.30;100507.38;4965599;28;7233;-73
2023/05/05 04:28:21;;;;;;;;;;;;;;;18.55;55.26;100510.91;4969096;28;7281;-75
2023/05/05 04:30:47;;;;;;;;;;;;;;;18.57;55.64;100517.00;4970321;28;6791;-72
2023/05/05 04:33:13;;;;;;;;;;;;;;;18.58;55.08;100514.41;4960551;28;6983;-75
2023/05/05 04:35:38;;;;;;;;;;;;;;;18.62;55.72;100506.69;4985024;28;7166;-75
2023/05/05 04:38:04;;;;;;;;;;;;;;;18.65;55.35;100510.22;4976643;28;7431;-74
2023/05/05 04:40:30;;;;;;;;;;;;;;;18.66;54.88;100514.56;4972909;28;7150;-71
2023/05/05 04:42:55;;;;;;;;;;;;;;;18.67;55.28;100512.81;4969907;28;6768;-73
2023/05/05 04:45:21;;;;;;;;;;;;;;;18.67;55.21;100526.69;4968333;28;7094;-71
2023/05/05 04:47:47;;;;;;;;;;;;;;;18.68;55.11;100523.22;4965800;28;6835;-72
2023/05/05 04:50:13;;;;;;;;;;;;;;;18.71;55.07;100518.06;4949306;28;7216;-71
2023/05/05 04:52:39;;;;;;;;;;;;;;;18.72;55.01;100519.81;4963642;28;6843;-73
2023/05/05 04:55:05;;;;;;;;;;;;;;;18.73;55.62;100516.41;4968234;28;6796;-73
2023/05/05 04:57:31;;;;;;;;;;;;;;;18.79;55.33;100522.53;4986588;28;8980;-74
2023/05/05 04:59:58;;;;;;;;;;;;;;;18.81;55.14;100515.63;4961208;28;6804;-71
2023/05/05 05:02:24;;;;;;;;;;;;;;;18.86;55.18;100521.78;4982437;28;6812;-71
2023/05/05 05:04:50;;;;;;;;;;;;;;;18.87;55.25;100528.72;4981648;28;6788;-73
2023/05/05 05:07:15;;;;;;;;;;;;;;;18.88;55.16;100533.06;4961786;28;6979;-74
2023/05/05 05:09:41;;;;;;;;;;;;;;;18.88;55.08;100538.25;4969263;28;6816;-73
2023/05/05 05:12:08;;;;;;;;;;;;;;;18.89;55.16;100542.59;4971086;28;6894;-71
2023/05/05 05:14:38;;;;;;;;;;;;;;;18.90;55.16;100539.16;4984847;28;6804;-72
2023/05/05 05:17:05;;;;;;;;;;;;;;;18.94;55.22;100545.25;4967951;28;7264;-73
2023/05/05 05:19:31;;;;;;;;;;;;;;;18.98;55.20;100542.75;4953915;28;6800;-72
2023/05/05 05:21:56;;;;;;;;;;;;;;;19.04;55.98;100549.78;4970029;28;6979;-72
2023/05/05 05:24:23;;;;;;;;;;;;;;;19.13;56.22;100554.28;4968623;28;6852;-73
2023/05/05 05:26:50;;;;;;;;;;;;;;;19.25;56.24;100562.22;4966345;28;6816;-72
2023/05/05 05:29:15;;;;;;;;;;;;;;;19.39;56.29;100556.34;4954777;28;7068;-71
2023/05/05 05:31:41;;;;;;;;;;;;;;;19.51;55.98;100559.16;4988185;28;7223;-73
2023/05/05 05:34:06;;;;;;;;;;;;;;;19.62;56.01;100555.81;4970837;28;7015;-72
2023/05/05 05:36:32;;;;;;;;;;;;;;;19.73;55.66;100553.34;4960689;28;7306;-75
2023/05/05 05:38:58;;;;;;;;;;;;;;;19.84;55.81;100555.22;4966104;28;6992;-71
2023/05/05 05:41:24;;;;;;;;;;;;;;;19.98;56.03;100544.13;4986516;28;7110;-74
2023/05/05 05:43:49;;;;;;;;;;;;;;;20.19;55.86;100558.25;4949585;28;6885;-72
2023/05/05 05:46:15;;;;;;;;;;;;;;;20.31;55.29;100547.06;4959730;28;7984;-71
2023/05/05 05:48:40;;;;;;;;;;;;;;;20.41;55.42;100543.72;4945818;28;6768;-71
2023/05/05 05:51:06;;;;;;;;;;;;;;;20.47;54.92;100538.56;4962432;28;6788;-72
2023/05/05 05:53:32;;;;;;;;;;;;;;;20.57;54.73;100552.56;4946171;28;7025;-74
2023/05/05 05:55:57;;;;;;;;;;;;;;;20.64;54.63;100546.53;4968290;28;6836;-74
2023/05/05 05:58:23;;;;;;;;;;;;;;;20.73;54.50;100550.06;4984591;28;7045;-71
2023/05/05 06:00:49;;;;;;;;;;;;;;;20.80;53.97;100542.31;4943681;28;6792;-75
2023/05/05 06:03:14;;;;;;;;;;;;;;;20.89;54.05;100548.50;4968276;28;6788;-74
2023/05/05 06:05:40;;;;;;;;;;;;;;;20.97;53.92;100548.56;4969067;28;7106;-72
2023/05/05 06:08:06;;;;;;;;;;;;;;;21.03;53.74;100549.47;4976334;28;6974;-72
2023/05/05 06:10:32;;;;;;;;;;;;;;;21.10;53.61;100550.41;4970478;28;7000;-72
2023/05/05 06:12:57;;;;;;;;;;;;;;;21.19;53.64;100554.78;4979226;28;6951;-73
2023/05/05 06:15:24;;;;;;;;;;;;;;;21.26;53.38;100556.56;4947545;28;7145;-74
2023/05/05 06:17:50;;;;;;;;;;;;;;;21.34;53.29;100559.22;4959977;28;7098;-74
2023/05/05 06:20:15;;;;;;;;;;;;;;;21.43;52.96;100568.84;4941611;28;6978;-73
2023/05/05 06:22:41;;;;;;;;;;;;;;;21.54;53.06;100576.75;4962316;28;7377;-70
2023/05/05 06:25:07;;;;;;;;;;;;;;;21.64;52.83;100573.31;4982959;28;7242;-72
2023/05/05 06:27:33;;;;;;;;;;;;;;;21.75;52.68;100581.19;4952553;28;6832;-74
2023/05/05 06:29:59;;;;;;;;;;;;;;;21.89;52.10;100591.69;4954456;28;6988;-74
2023/05/05 06:32:24;;;;;;;;;;;;;;;22.01;52.34;100583.91;4981826;28;6952;-72
2023/05/05 06:34:50;;;;;;;;;;;;;;;22.15;51.96;100583.09;4967087;28;7030;-72
2023/05/05 06:37:15;;;;;;;;;;;;;;;22.28;51.67;100584.88;4952190;28;6776;-72
2023/05/05 06:39:41;;;;;;;;;;;;;;;22.43;51.78;100585.78;4963703;28;6990;-72
2023/05/05 06:42:07;;;;;;;;;;;;;;;22.56;51.10;100578.88;4978521;28;6776;-71
2023/05/05 06:44:35;;;;;;;;;;;;;;;22.65;51.32;100580.63;4952496;28;6843;-72
2023/05/05 06:47:01;;;;;;;;;;;;;;;22.70;50.64;100577.13;4965077;28;8132;-74
2023/05/05 06:49:27;;;;;;;;;;;;;;;22.76;50.69;100584.09;4950033;28;7854;-71
2023/05/05 06:51:52;;;;;;;;;;;;;;;22.77;50.08;100584.97;4969243;28;7465;-70
2023/05/05 06:54:18;;;;;;;;;;;;;;;22.78;50.02;100590.19;4974113;28;7387;-70
2023/05/05 06:56:44;;;;;;;;;;;;;;;22.78;49.49;100589.34;4985660;28;6947;-71
2023/05/05 06:59:10;;;;;;;;;;;;;;;22.78;49.35;100603.25;4948698;28;6915;-71
2023/05/05 07:01:36;;;;;;;;;;;;;;;22.83;49.10;100596.31;4965506;28;7144;-71
2023/05/05 07:04:02;;;;;;;;;;;;;;;22.91;49.17;100598.91;4951369;28;6848;-72
2023/05/05 07:06:28;;;;;;;;;;;;;;;22.98;49.15;100600.66;4981875;28;6768;-74
2023/05/05 07:08:53;;;;;;;;;;;;;;;23.06;48.97;100595.41;4952819;28;7022;-74
2023/05/05 07:11:19;;;;;;;;;;;;;;;23.14;48.26;100596.28;4969501;28;7003;-72
2023/05/05 07:13:45;;;;;;;;;;;;;;;23.25;48.28;100598.00;4953506;28;6767;-70
2023/05/05 07:16:10;;;;;;;;;;;;;;;23.34;48.14;100600.66;4972681;28;6776;-71
2023/05/05 07:18:36;;;;;;;;;;;;;;;23.40;48.21;100598.03;4970146;28;6782;-71
2023/05/05 07:21:04;;;;;;;;;;;;;;;23.47;47.60;100598.00;4959090;28;7129;-74
2023/05/05 07:23:30;;;;;;;;;;;;;;;23.52;47.52;100596.25;4964566;28;6800;-71
2023/05/05 07:25:55;;;;;;;;;;;;;;;23.53;46.71;100598.88;4964926;28;6820;-72
2023/05/05 07:28:21;;;;;;;;;;;;;;;23.55;46.62;100596.22;4965122;28;6764;-70
2023/05/05 07:30:47;;;;;;;;;;;;;;;23.57;46.52;100600.59;4958506;28;7260;-70
2023/05/05 07:33:13;;;;;;;;;;;;;;;23.64;46.59;100605.81;4984690;28;6922;-72
2023/05/05 07:35:39;;;;;;;;;;;;;;;23.69;46.90;100610.16;4963740;28;7392;-71
2023/05/05 07:38:05;;;;;;;;;;;;;;;23.74;47.15;100609.25;4947115;28;6906;-71
2023/05/05 07:40:32;;;;;;;;;;;;;;;23.84;46.52;100608.34;4955135;28;7059;-73
2023/05/05 07:42:58;;;;;;;;;;;;;;;23.95;46.55;100613.56;4971805;28;6791;-71
2023/05/05 07:45:24;;;;;;;;;;;;;;;24.07;45.96;100613.53;4949428;28;6791;-71
2023/05/05 07:47:49;;;;;;;;;;;;;;;24.17;46.19;100611.75;4981334;28;7142;-71
2023/05/05 07:50:15;;;;;;;;;;;;;;;24.25;45.97;100615.19;4969508;28;6860;-74
2023/05/05 07:52:40;;;;;;;;;;;;;;;24.35;45.47;100613.38;4960228;28;6757;-72
2023/05/05 07:55:06;;;;;;;;;;;;;;;24.46;45.55;100617.69;4961122;28;6975;-71
2023/05/05 07:57:32;;;;;;;;;;;;;;;24.57;45.70;100628.09;4967473;28;6983;-73
2023/05/05 07:59:57;;;;;;;;;;;;;;;24.65;45.37;100610.59;4963721;28;6768;-71
2023/05/05 08:02:23;;;;;;;;;;;;;;;24.72;44.46;100604.41;4969142;28;6771;-74
2023/05/05 08:04:48;;;;;;;;;;;;;;;24.74;44.64;100602.66;4967905;28;6768;-71
2023/05/05 08:07:14;;;;;;;;;;;;;;;24.79;44.48;100603.50;4982176;28;6814;-72
2023/05/05 08:09:40;;;;;;;;;;;;;;;24.86;44.49;100601.69;4959584;28;6772;-72
2023/05/05 08:12:06;;;;;;;;;;;;;;;24.97;44.78;100593.75;4971222;28;7206;-70
2023/05/05 08:14:32;;;;;;;;;;;;;;;25.10;44.44;100584.88;4975213;28;6944;-72
2023/05/05 08:16:57;;;;;;;;;;;;;;;25.29;44.10;100586.47;4960514;28;6983;-72
2023/05/05 08:19:24;;;;;;;;;;;;;;;25.48;43.65;100589.75;4962023;28;6780;-71
2023/05/05 08:21:49;;;;;;;;;;;;;;;25.64;43.37;100591.38;4965268;28;6986;-72
2023/05/05 08:24:15;;;;;;;;;;;;;;;25.79;43.20;100592.09;4965616;28;6947;-72
2023/05/05 08:26:41;;;;;;;;;;;;;;;25.97;43.00;100584.84;4951034;28;6768;-70
2023/05/05 08:29:07;;;;;;;;;;;;;;;26.15;42.71;100571.44;4944989;28;7154;-72
2023/05/05 08:31:35;;;;;;;;;;;;;;;26.38;42.80;100578.19;4983480;28;6788;-70
2023/05/05 08:34:04;;;;;;;;;;;;;;;26.59;42.16;100576.97;4959100;28;6852;-70
2023/05/05 08:36:31;;;;;;;;;;;;;;;26.70;41.17;100583.81;4953532;28;6784;-73
2023/05/05 08:38:57;;;;;;;;;;;;;;;26.74;41.26;100596.03;4941771;28;6769;-72
2023/05/05 08:41:23;;;;;;;;;;;;;;;26.78;40.60;100589.81;4977169;28;6839;-72
2023/05/05 08:43:49;;;;;;;;;;;;;;;26.80;40.49;100590.66;4965249;28;6796;-71
2023/05/05 08:46:16;;;;;;;;;;;;;;;26.83;40.26;100595.88;4943807;28;10569;-72
2023/05/05 08:48:44;;;;;;;;;;;;;;;26.85;40.11;100594.06;4945850;28;6792;-73
2023/05/05 08:51:17;;;;;;;;;;;;;;;26.93;40.16;100601.84;4952218;28;6960;-74
2023/05/05 08:54:02;;;;;;;;;;;;;;;27.11;39.91;100584.03;4985467;28;7299;-72
2023/05/05 08:56:38;;;;;;;;;;;;;;;27.36;39.51;100594.97;4952827;28;7154;-75
2023/05/05 08:59:03;;;;;;;;;;;;;;;27.58;39.49;100603.34;4952577;28;6983;-74
2023/05/05 09:01:32;;;;;;;;;;;;;;;27.84;39.56;100598.44;4980807;28;7205;-73
2023/05/05 09:03:58;;;;;;;;;;;;;;;28.19;39.23;100595.97;4952399;28;7290;-73
2023/05/05 09:06:26;;;;;;;;;;;;;;;28.60;38.78;100588.88;4952626;28;6788;-71
2023/05/05 09:08:52;;;;;;;;;;;;;;;28.97;37.86;100589.75;4954111;28;6801;-73
2023/05/05 09:11:18;;;;;;;;;;;;;;;29.22;37.23;100589.13;4957233;28;6796;-71
2023/05/05 09:13:43;;;;;;;;;;;;;;;29.35;37.06;100589.63;4989264;28;6835;-72
2023/05/05 09:16:09;;;;;;;;;;;;;;;29.38;36.15;100594.84;4955192;28;6991;-72
2023/05/05 09:18:39;;;;;;;;;;;;;;;29.30;36.09;100591.53;4979605;28;7218;-72
2023/05/05 09:21:23;;;;;;;;;;;;;;;29.14;36.13;100596.38;4981430;28;7048;-71
2023/05/05 09:24:07;;;;;;;;;;;;;;;29.05;36.48;100593.06;4952200;28;6892;-74
2023/05/05 09:26:35;;;;;;;;;;;;;;;29.06;35.74;100604.47;4953503;28;6850;-71
2023/05/05 09:29:02;;;;;;;;;;;;;;;29.07;35.94;100596.53;4969274;28;6804;-74
2023/05/05 09:31:33;;;;;;;;;;;;;;;29.17;36.17;100602.44;4953504;28;7239;-74
2023/05/05 09:34:00;;;;;;;;;;;;;;;29.32;35.38;100600.28;4981259;28;6849;-72
2023/05/05 09:36:46;;;;;;;;;;;;;;;29.58;35.75;100607.50;4965339;28;6772;-73
2023/05/05 09:39:18;;;;;;;;;;;;;;;29.93;34.95;100602.09;4955518;28;7264;-71
2023/05/05 09:41:45;;;;;;;;;;;;;;;30.34;34.33;100592.06;4963442;28;6868;-72
2023/05/05 09:44:14;;;;;;;;;;;;;;;30.69;33.86;100591.00;4956311;28;6784;-72
2023/05/05 09:46:51;;;;;;;;;;;;;;;31.00;33.91;100589.94;4969733;28;6824;-74
2023/05/05 09:49:24;;;;;;;;;;;;;;;31.21;33.34;100582.19;4967360;28;6776;-73
2023/05/05 09:51:51;;;;;;;;;;;;;;;31.23;33.21;100575.06;4986292;28;7076;-73
2023/05/05 09:54:26;;;;;;;;;;;;;;;31.07;32.63;100580.88;4974491;28;6972;-72
2023/05/05 09:56:53;;;;;;;;;;;;;;;30.85;32.48;100583.41;4974786;28;6985;-71
2023/05/05 09:59:20;;;;;;;;;;;;;;;30.54;32.25;100582.63;4967228;28;6800;-73
2023/05/05 10:01:47;;;;;;;;;;;;;;;30.27;33.11;100576.44;4967274;28;6972;-71
2023/05/05 10:04:28;;;;;;;;;;;;;;;29.99;32.54;100580.78;4952891;28;6986;-72
2023/05/05 10:06:56;;;;;;;;;;;;;;;29.66;33.48;100583.53;4964235;28;6788;-71
2023/05/05 10:09:26;;;;;;;;;;;;;;;29.33;33.42;100594.09;4985599;28;7185;-71
2023/05/05 10:11:52;;;;;;;;;;;;;;;28.97;33.13;100589.75;4956891;28;6972;-71
2023/05/05 10:14:18;;;;;;;;;;;;;;;28.69;33.75;100586.03;4965293;28;7272;-71
2023/05/05 10:16:49;;;;;;;;;;;;;;;28.37;33.31;100594.69;4967950;28;6861;-71
2023/05/05 10:19:23;;;;;;;;;;;;;;;28.01;33.71;100606.00;4961359;28;7300;-71
2023/05/05 10:22:01;;;;;;;;;;;;;;;27.72;34.03;100603.06;4965023;28;7291;-72
2023/05/05 10:24:41;;;;;;;;;;;;;;;27.47;34.40;100607.91;4953050;28;6801;-71
2023/05/05 10:27:14;;;;;;;;;;;;;;;27.16;34.52;100598.81;4973521;28;6816;-72
2023/05/05 10:30:06;;;;;;;;;;;;;;;26.84;34.57;100607.22;4956857;28;8835;-71
2023/05/05 10:32:49;;;;;;;;;;;;;;;26.50;35.42;100611.25;4965312;28;6784;-70
2023/05/05 10:35:22;;;;;;;;;;;;;;;26.27;35.72;100614.22;4958841;28;7162;-72
2023/05/05 10:37:47;;;;;;;;;;;;;;;26.09;36.12;100617.94;4954102;28;6784;-73
2023/05/05 10:40:14;;;;;;;;;;;;;;;25.92;36.40;100613.78;4967253;28;7259;-73
2023/05/05 10:42:40;;;;;;;;;;;;;;;25.70;36.65;100611.41;4969220;28;6784;-74
2023/05/05 10:45:07;;;;;;;;;;;;;;;25.46;37.25;100616.03;4979358;28;6986;-74
2023/05/05 10:47:35;;;;;;;;;;;;;;;25.07;38.53;100616.38;4966162;28;6808;-74
2023/05/05 10:50:22;;;;;;;;;;;;;;;24.68;39.50;100628.91;4958734;28;6804;-75
2023/05/05 10:53:06;;;;;;;;;;;;;;;24.28;39.74;100624.75;4976105;28;8894;-74
2023/05/05 10:55:58;;;;;;;;;;;;;;;23.98;40.74;100617.03;4938246;28;7385;-74
2023/05/05 10:58:36;;;;;;;;;;;;;;;23.79;41.18;100613.59;4959582;28;7490;-74
2023/05/05 11:01:03;;;;;;;;;;;;;;;23.70;42.02;100608.41;4958999;28;7288;-74
2023/05/05 11:03:30;;;;;;;;;;;;;;;23.67;42.19;100611.91;4981378;28;7314;-75
2023/05/05 11:06:15;;;;;;;;;;;;;;;23.68;42.98;100612.78;4962943;28;6804;-74
2023/05/05 11:08:43;;;;;;;;;;;;;;;23.72;42.90;100604.91;4976818;28;7267;-74
2023/05/05 11:11:11;;;;;;;;;;;;;;;23.79;42.02;100600.53;4962818;28;6867;-74
2023/05/05 11:13:40;;;;;;;;;;;;;;;23.81;41.38;100601.41;4950781;28;6983;-74
2023/05/05 11:16:43;;;;;;;;;;;;;;;23.85;41.18;100591.78;4951565;28;7420;-74
2023/05/05 11:19:44;;;;;;;;;;;;;;;23.89;40.98;100592.63;4947494;28;7285;-74
2023/05/05 11:22:10;;;;;;;;;;;;;;;23.90;41.67;100582.16;4978118;28;7133;-74
2023/05/05 11:24:38;;;;;;;;;;;;;;;23.97;41.21;100590.84;4979541;28;6771;-74
2023/05/05 11:27:05;;;;;;;;;;;;;;;24.06;41.27;100584.75;4963174;28;6796;-74
2023/05/05 11:30:06;;;;;;;;;;;;;;;24.16;41.75;100581.22;4964826;28;7341;-74
2023/05/05 11:32:32;;;;;;;;;;;;;;;24.29;41.49;100575.91;4975274;28;6816;-74
2023/05/05 11:35:00;;;;;;;;;;;;;;;24.47;41.41;100567.91;4975951;28;8201;-74
2023/05/05 11:37:29;;;;;;;;;;;;;;;24.74;40.87;100567.72;4980125;28;7425;-74
2023/05/05 11:40:20;;;;;;;;;;;;;;;25.05;41.17;100556.97;4977552;28;7278;-74
2023/05/05 11:42:46;;;;;;;;;;;;;;;25.36;41.27;100559.31;4981626;28;6991;-74
2023/05/05 11:45:23;;;;;;;;;;;;;;;25.76;40.42;100563.22;4963708;28;6780;-74
2023/05/05 11:47:48;;;;;;;;;;;;;;;26.15;39.83;100557.47;4981271;28;7442;-74
2023/05/05 11:50:17;;;;;;;;;;;;;;;26.54;39.59;100554.28;4964539;28;6942;-74
2023/05/05 11:52:42;;;;;;;;;;;;;;;26.99;38.75;100543.03;4966830;28;6863;-74
2023/05/05 11:55:09;;;;;;;;;;;;;;;27.39;37.71;100549.31;4979343;28;6834;-74
2023/05/05 11:57:34;;;;;;;;;;;;;;;27.77;37.54;100552.94;4969790;28;7545;-74
2023/05/05 12:00:06;;;;;;;;;;;;;;;28.12;37.14;100538.13;4963188;28;6804;-74
2023/05/05 12:02:32;;;;;;;;;;;;;;;28.35;35.69;100534.13;4953445;28;6815;-74
2023/05/05 12:04:59;;;;;;;;;;;;;;;28.62;35.22;100530.81;4948777;28;7228;-74
2023/05/05 12:07:29;;;;;;;;;;;;;;;28.94;34.95;100529.19;4947714;28;7014;-74
2023/05/05 12:09:55;;;;;;;;;;;;;;;29.35;34.90;100526.28;4977506;28;6835;-74
2023/05/05 12:12:37;;;;;;;;;;;;;;;29.61;34.27;100522.06;4964906;28;6792;-74
2023/05/05 12:15:04;;;;;;;;;;;;;;;29.72;33.68;100525.22;4950516;28;6812;-74
2023/05/05 12:17:42;;;;;;;;;;;;;;;29.81;33.32;100521.47;4959809;28;7083;-74
2023/05/05 12:20:09;;;;;;;;;;;;;;;29.86;33.60;100521.31;4947972;28;6979;-74
2023/05/05 12:22:36;;;;;;;;;;;;;;;29.77;33.53;100520.69;4947816;28;6888;-74
2023/05/05 12:25:06;;;;;;;;;;;;;;;29.52;32.70;100517.94;4977335;28;7242;-74
2023/05/05 12:27:34;;;;;;;;;;;;;;;29.14;32.63;100523.34;4957006;28;6983;-74
2023/05/05 12:30:17;;;;;;;;;;;;;;;28.82;33.23;100512.75;4963320;28;6784;-74
2023/05/05 12:32:43;;;;;;;;;;;;;;;28.58;33.34;100519.50;4964462;28;11308;-74
2023/05/05 12:35:10;;;;;;;;;;;;;;;28.42;33.82;100525.16;4986258;28;7260;-74
2023/05/05 12:37:37;;;;;;;;;;;;;;;28.45;34.19;100518.97;4955192;28;6876;-74
2023/05/05 12:40:04;;;;;;;;;;;;;;;28.67;33.92;100529.81;4968741;28;7215;-74
2023/05/05 12:42:30;;;;;;;;;;;;;;;29.01;34.56;100527.22;4971209;28;6792;-74
2023/05/05 12:44:56;;;;;;;;;;;;;;;29.39;33.58;100520.88;4981977;28;7833;-74
2023/05/05 12:47:30;;;;;;;;;;;;;;;29.68;32.83;100513.03;4967448;28;6796;-74
2023/05/05 12:49:58;;;;;;;;;;;;;;;29.89;32.91;100515.94;4965939;28;6796;-74
2023/05/05 12:52:41;;;;;;;;;;;;;;;29.94;32.58;100516.66;4953031;28;7236;-74
2023/05/05 12:55:08;;;;;;;;;;;;;;;29.87;32.30;100521.25;4971086;28;7220;-74
2023/05/05 12:57:33;;;;;;;;;;;;;;;29.65;32.15;100514.00;4985743;28;7414;-74
2023/05/05 13:00:15;;;;;;;;;;;;;;;29.36;32.39;100513.03;4968471;28;6874;-74